Portada
METAR-TAF:

METAR-TAF

Aeropuertos :

Base Naval de Rota

Rota, España

latitud: 36-39N, longitud: 006-21W, altitud: 26 m

Observación

El informe se hizo hace 16 minutos, a las 05:00 UTC
Viento 3 kt del este, variando entre noreste y este-sureste
Temperatura 15°C
Humedad 82%
Presión 1012 hPa
Visibilidad 10 km o más
sin nubes por debajo de 1500 m y sin presencia de cumulonimbus.

METAR: LERT 210500Z 09003KT 050V110 CAVOK 15/12 Q1012 NOSIG

Hora: 07:16 (05:16 UTC)

Pronóstico

El informe se hizo hace 3 horas y 16 minutos, a las 02:00 UTC
Pronóstico válido del 21 a las 03 UTC al 21 a las 12 UTC
Viento 6 kt del sur-suroeste
Visibilidad 10 km o más
Escasas nubes a una altura de 4000 ft

TAF: LERT 210200Z 2103/2112 21006KT 9999 FEW040

Observaciones y pronósticos meteorológicos de más de 4000 aeropuertos (mensajes METAR y TAF).

Los puntos amarillos y rojos representan las estaciones disponibles.

Ponga el ratón en el punto deseado para ver el nombre de la estación.

Haga clic para ver las observaciones y los pronósticos meteorológicos.

Para cambiar el mapa : haga clic en los botones verdes con una cruz de color negro para hacer un zoom, en el botón verde con un guión para alejar o en las flechas verdes para mapas adyacentes.


METAR-TAF: